createdAt,value
2022-07-31T00:00:20.421Z,5.03
2022-07-31T00:02:22.489Z,4.50
2022-07-31T00:04:24.488Z,4.82
2022-07-31T00:06:26.627Z,4.57
2022-07-31T00:08:28.620Z,5.72
2022-07-31T00:10:31.069Z,5.72
2022-07-31T00:12:34.925Z,3.33
2022-07-31T00:14:37.060Z,4.47
2022-07-31T00:16:39.045Z,4.45
2022-07-31T00:18:41.147Z,3.75
2022-07-31T00:20:44.650Z,8.25
2022-07-31T00:22:49.129Z,8.07
2022-07-31T00:24:51.116Z,5.13
2022-07-31T00:26:53.214Z,2.80
2022-07-31T00:28:55.210Z,6.93
2022-07-31T00:30:57.188Z,4.00
2022-07-31T00:32:59.363Z,4.07
2022-07-31T00:35:01.761Z,3.83
2022-07-31T00:37:04.012Z,4.97
2022-07-31T00:39:06.302Z,3.50
2022-07-31T00:41:08.325Z,8.43
2022-07-31T00:43:10.286Z,5.97
2022-07-31T00:45:13.514Z,4.05
2022-07-31T00:47:17.176Z,4.50
2022-07-31T00:49:19.265Z,8.70
2022-07-31T00:51:21.434Z,6.35
2022-07-31T00:53:23.566Z,5.85
2022-07-31T00:55:26.444Z,4.65
2022-07-31T00:57:28.444Z,3.70
2022-07-31T00:59:31.507Z,4.68
2022-07-31T01:01:35.670Z,2.85
2022-07-31T01:03:38.203Z,7.75
2022-07-31T01:05:41.314Z,6.65
2022-07-31T01:07:43.352Z,4.93
2022-07-31T01:09:47.190Z,4.57
2022-07-31T01:12:07.384Z,4.70
2022-07-31T01:14:09.672Z,4.47
2022-07-31T01:16:12.779Z,5.15
2022-07-31T01:18:16.484Z,4.43
2022-07-31T01:20:18.726Z,3.92
2022-07-31T01:22:35.861Z,6.60
2022-07-31T01:24:50.635Z,5.55
2022-07-31T01:27:06.956Z,5.30
2022-07-31T01:29:18.904Z,5.43
2022-07-31T01:31:27.447Z,7.18
2022-07-31T01:33:34.818Z,7.00
2022-07-31T01:36:05.053Z,5.47
2022-07-31T01:38:35.578Z,4.95
2022-07-31T01:40:51.230Z,4.85
2022-07-31T01:42:58.690Z,6.10
2022-07-31T01:45:03.275Z,4.72
2022-07-31T01:47:06.766Z,4.70
2022-07-31T01:49:11.158Z,3.63
2022-07-31T01:51:14.789Z,4.38
2022-07-31T01:53:25.026Z,5.78
2022-07-31T01:55:28.082Z,4.05
2022-07-31T01:57:32.728Z,4.57
2022-07-31T01:59:37.249Z,3.83
2022-07-31T02:01:45.806Z,5.80
2022-07-31T02:03:51.438Z,3.63
2022-07-31T02:06:01.029Z,4.15
2022-07-31T02:08:08.091Z,4.57
2022-07-31T02:10:12.437Z,8.30
2022-07-31T02:12:15.245Z,5.22
2022-07-31T02:14:21.040Z,5.00
2022-07-31T02:16:24.352Z,3.72
2022-07-31T02:18:27.618Z,4.18
2022-07-31T02:20:31.259Z,3.25
2022-07-31T02:22:34.792Z,4.63
2022-07-31T02:24:36.982Z,5.07
2022-07-31T02:26:40.988Z,5.40
2022-07-31T02:28:46.221Z,3.83
2022-07-31T02:30:49.822Z,5.72
2022-07-31T02:32:52.929Z,5.07
2022-07-31T02:34:55.891Z,4.95
2022-07-31T02:36:58.327Z,3.90
2022-07-31T02:39:02.492Z,4.78
2022-07-31T02:41:05.725Z,4.65
2022-07-31T02:43:08.753Z,5.18
2022-07-31T02:45:11.448Z,6.15
2022-07-31T02:47:14.012Z,13.32
2022-07-31T02:49:16.436Z,4.22
2022-07-31T02:51:18.826Z,6.28
2022-07-31T02:53:21.406Z,7.97
2022-07-31T02:55:23.660Z,5.10
2022-07-31T02:57:25.896Z,7.50
2022-07-31T02:59:28.201Z,4.03
2022-07-31T03:01:35.265Z,5.07
2022-07-31T03:03:37.403Z,4.10
2022-07-31T03:05:39.449Z,5.53
2022-07-31T03:07:41.452Z,5.07
2022-07-31T03:09:43.777Z,5.18
2022-07-31T03:11:45.860Z,5.32
2022-07-31T03:13:48.498Z,4.35
2022-07-31T03:15:51.766Z,8.15
2022-07-31T03:17:54.583Z,4.57
2022-07-31T03:19:56.890Z,3.92
2022-07-31T03:22:00.283Z,5.03
2022-07-31T03:24:03.696Z,4.30
2022-07-31T03:26:06.660Z,6.32
2022-07-31T03:28:09.588Z,3.75
2022-07-31T03:30:19.278Z,7.07
2022-07-31T03:32:21.679Z,3.92
2022-07-31T03:34:23.685Z,5.72
2022-07-31T03:36:27.469Z,7.40
2022-07-31T03:38:40.500Z,5.50
2022-07-31T03:40:45.293Z,6.10
2022-07-31T03:42:49.736Z,8.02
2022-07-31T03:44:51.960Z,5.28
2022-07-31T03:46:54.460Z,6.53
2022-07-31T03:48:56.624Z,5.53
2022-07-31T03:50:59.325Z,4.20
2022-07-31T03:53:01.411Z,5.80
2022-07-31T03:55:04.222Z,5.72
2022-07-31T03:57:07.997Z,5.32
2022-07-31T03:59:10.287Z,6.95
2022-07-31T04:01:14.975Z,6.40
2022-07-31T04:03:17.450Z,5.72
2022-07-31T04:05:19.437Z,6.68
2022-07-31T04:07:22.196Z,4.40
2022-07-31T04:09:24.219Z,4.63
2022-07-31T04:11:26.167Z,4.45
2022-07-31T04:13:28.516Z,4.00
2022-07-31T04:15:30.985Z,6.00
2022-07-31T04:17:33.781Z,4.45
2022-07-31T04:19:36.603Z,9.60
2022-07-31T04:21:38.624Z,4.28
2022-07-31T04:23:40.725Z,3.85
2022-07-31T04:25:52.121Z,7.15
2022-07-31T04:27:54.067Z,3.80
2022-07-31T04:29:57.887Z,4.03
2022-07-31T04:32:00.044Z,3.75
2022-07-31T04:34:03.198Z,4.47
2022-07-31T04:36:05.770Z,9.00
2022-07-31T04:38:28.024Z,3.33
2022-07-31T04:40:30.054Z,3.33
2022-07-31T04:42:32.876Z,5.80
2022-07-31T04:44:34.968Z,6.78
2022-07-31T04:46:37.392Z,5.03
2022-07-31T04:48:41.366Z,8.02
2022-07-31T04:50:45.657Z,3.42
2022-07-31T04:52:47.708Z,5.05
2022-07-31T04:54:49.762Z,4.60
2022-07-31T04:56:52.084Z,7.43
2022-07-31T04:58:54.065Z,4.97
2022-07-31T05:00:56.103Z,4.35
2022-07-31T05:02:58.184Z,5.53
2022-07-31T05:05:00.182Z,4.20
2022-07-31T05:07:02.196Z,4.75
2022-07-31T05:09:09.975Z,3.13
2022-07-31T05:11:22.723Z,4.47
2022-07-31T05:13:24.788Z,8.02
2022-07-31T05:15:26.998Z,7.57
2022-07-31T05:17:29.031Z,5.30
2022-07-31T05:19:31.373Z,5.82
2022-07-31T05:21:33.587Z,6.03
2022-07-31T05:23:54.791Z,4.75
2022-07-31T05:25:56.786Z,7.05
2022-07-31T05:27:58.699Z,5.35
2022-07-31T05:30:02.112Z,5.13
2022-07-31T05:32:05.119Z,3.60
2022-07-31T05:34:07.235Z,5.03
2022-07-31T05:36:09.768Z,7.20
2022-07-31T05:38:11.965Z,5.25
2022-07-31T05:40:14.255Z,7.55
2022-07-31T05:42:16.414Z,7.47
2022-07-31T05:44:21.208Z,5.57
2022-07-31T05:46:23.324Z,4.38
2022-07-31T05:48:25.327Z,4.25
2022-07-31T05:50:27.356Z,4.60
2022-07-31T05:52:29.347Z,5.95
2022-07-31T05:54:32.637Z,6.35
2022-07-31T05:56:34.590Z,5.32
2022-07-31T05:58:36.724Z,7.18
2022-07-31T06:00:40.031Z,7.25
2022-07-31T06:02:42.518Z,4.87
2022-07-31T06:04:44.666Z,6.78
2022-07-31T06:06:46.639Z,6.00
2022-07-31T06:08:48.579Z,7.72
2022-07-31T06:10:50.599Z,7.93
2022-07-31T06:12:52.865Z,4.97
2022-07-31T06:14:54.852Z,6.13
2022-07-31T06:16:56.783Z,6.88
2022-07-31T06:18:59.478Z,6.80
2022-07-31T06:21:01.520Z,6.03
2022-07-31T06:23:14.511Z,5.40
2022-07-31T06:25:31.925Z,5.45
2022-07-31T06:27:42.240Z,7.55
2022-07-31T06:29:44.270Z,6.23
2022-07-31T06:31:47.143Z,7.03
2022-07-31T06:33:50.155Z,9.00
2022-07-31T06:35:53.052Z,4.50
2022-07-31T06:37:55.045Z,6.20
2022-07-31T06:39:57.155Z,11.75
2022-07-31T06:45:09.898Z,8.48
2022-07-31T06:47:15.793Z,5.38
2022-07-31T06:49:19.066Z,6.07
2022-07-31T06:51:36.822Z,5.25
2022-07-31T06:53:38.861Z,7.13
2022-07-31T06:55:44.333Z,4.40
2022-07-31T06:57:47.318Z,9.68
2022-07-31T06:59:49.410Z,5.50
2022-07-31T07:01:51.436Z,5.97
2022-07-31T07:03:53.853Z,7.65
2022-07-31T07:05:55.801Z,5.07
2022-07-31T07:08:00.866Z,6.40
2022-07-31T07:10:03.115Z,6.53
2022-07-31T07:12:05.711Z,6.95
2022-07-31T07:14:11.042Z,9.43
2022-07-31T07:16:16.247Z,11.98
2022-07-31T07:18:19.735Z,6.82
2022-07-31T07:20:24.687Z,8.65
2022-07-31T07:22:31.381Z,7.95
2022-07-31T07:24:35.371Z,7.20
2022-07-31T07:26:37.615Z,11.10
2022-07-31T07:28:40.177Z,9.13
2022-07-31T07:30:42.345Z,6.28
2022-07-31T07:32:45.327Z,6.35
2022-07-31T07:34:47.399Z,7.55
2022-07-31T07:36:52.115Z,5.30
2022-07-31T07:38:56.214Z,6.32
2022-07-31T07:43:03.209Z,7.55
2022-07-31T07:45:08.380Z,6.72
2022-07-31T07:47:10.634Z,7.35
2022-07-31T07:49:12.688Z,7.07
2022-07-31T07:51:15.023Z,6.60
2022-07-31T07:53:19.767Z,5.53
2022-07-31T07:55:21.951Z,6.45
2022-07-31T07:57:24.076Z,7.35
2022-07-31T07:59:26.079Z,7.47
2022-07-31T08:01:28.607Z,9.18
2022-07-31T08:03:48.261Z,9.18
2022-07-31T08:05:52.854Z,7.88
2022-07-31T08:07:56.086Z,8.13
2022-07-31T08:09:59.757Z,7.80
2022-07-31T08:12:04.911Z,6.70
2022-07-31T08:14:07.204Z,8.23
2022-07-31T08:16:09.182Z,7.55
2022-07-31T08:18:11.428Z,7.88
2022-07-31T08:20:13.470Z,7.32
2022-07-31T08:22:15.657Z,8.98
2022-07-31T08:24:17.690Z,8.02
2022-07-31T08:26:19.629Z,6.80
2022-07-31T08:28:25.191Z,10.93
2022-07-31T08:30:31.155Z,6.50
2022-07-31T08:32:33.868Z,9.95
2022-07-31T08:34:42.037Z,7.93
2022-07-31T08:36:44.419Z,7.28
2022-07-31T08:38:47.290Z,9.02
2022-07-31T08:40:52.037Z,10.43
2022-07-31T08:43:01.032Z,11.90
2022-07-31T08:45:07.926Z,7.45
2022-07-31T08:47:11.754Z,7.88
2022-07-31T08:49:16.344Z,6.43
2022-07-31T08:51:18.999Z,8.00
2022-07-31T08:53:23.023Z,7.13
2022-07-31T08:57:50.792Z,8.20
2022-07-31T08:59:54.693Z,9.80
2022-07-31T09:01:57.265Z,7.50
2022-07-31T09:03:59.877Z,8.27
2022-07-31T09:06:02.198Z,10.32
2022-07-31T09:08:08.441Z,9.43
2022-07-31T09:10:28.893Z,10.18
2022-07-31T09:12:34.432Z,8.38
2022-07-31T09:14:37.230Z,9.68
2022-07-31T09:16:50.524Z,8.60
2022-07-31T09:19:51.174Z,10.52
2022-07-31T09:21:27.170Z,10.82
2022-07-31T09:23:30.269Z,11.20
2022-07-31T09:25:32.445Z,10.80
2022-07-31T09:27:43.595Z,12.48
2022-07-31T09:29:49.290Z,12.43
2022-07-31T09:31:51.505Z,16.55
2022-07-31T09:33:53.670Z,12.30
2022-07-31T09:35:57.493Z,12.75
2022-07-31T09:37:59.649Z,14.73
2022-07-31T09:40:08.489Z,10.57
2022-07-31T09:44:19.683Z,15.23
2022-07-31T09:46:42.309Z,13.93
2022-07-31T09:48:56.709Z,12.55
2022-07-31T09:51:07.202Z,12.45
2022-07-31T09:53:09.293Z,13.25
2022-07-31T09:55:17.050Z,11.55
2022-07-31T09:57:19.194Z,11.90
2022-07-31T09:59:21.296Z,15.65
2022-07-31T10:01:24.304Z,12.20
2022-07-31T10:03:26.855Z,15.43
2022-07-31T10:05:29.025Z,11.50
2022-07-31T10:07:35.922Z,13.30
2022-07-31T10:09:39.804Z,15.20
2022-07-31T10:11:42.706Z,17.10
2022-07-31T10:13:51.069Z,11.98
2022-07-31T10:15:55.889Z,12.77
2022-07-31T10:18:02.386Z,17.35
2022-07-31T10:20:07.159Z,13.55
2022-07-31T10:22:12.555Z,14.60
2022-07-31T10:24:16.568Z,15.68
2022-07-31T10:26:20.478Z,10.68
2022-07-31T10:30:28.340Z,12.52
2022-07-31T10:32:32.179Z,11.93
2022-07-31T10:34:35.384Z,16.70
2022-07-31T10:36:40.436Z,14.80
2022-07-31T10:38:46.557Z,16.02
2022-07-31T10:41:03.905Z,15.52
2022-07-31T10:43:24.557Z,16.00
2022-07-31T10:45:27.111Z,12.35
2022-07-31T10:47:29.168Z,14.30
2022-07-31T10:49:48.112Z,12.95
2022-07-31T10:51:53.777Z,16.10
2022-07-31T10:53:57.952Z,15.75
2022-07-31T10:56:04.956Z,19.48
2022-07-31T10:58:15.713Z,14.55
2022-07-31T11:00:21.188Z,15.82
2022-07-31T11:02:32.705Z,17.15
2022-07-31T11:04:37.008Z,16.15
2022-07-31T11:06:44.659Z,11.30
2022-07-31T11:08:54.230Z,15.73
2022-07-31T11:10:57.794Z,16.27
2022-07-31T11:13:12.805Z,15.45
2022-07-31T11:15:23.486Z,19.80
2022-07-31T11:18:21.290Z,15.32
2022-07-31T11:20:00.301Z,16.00
2022-07-31T11:22:30.719Z,16.88
2022-07-31T11:24:34.842Z,13.00
2022-07-31T11:26:41.725Z,16.48
2022-07-31T11:28:45.047Z,17.90
2022-07-31T11:31:04.773Z,15.10
2022-07-31T11:33:06.908Z,15.48
2022-07-31T11:35:09.819Z,14.05
2022-07-31T11:37:22.854Z,16.65
2022-07-31T11:39:36.266Z,17.05
2022-07-31T11:41:44.004Z,12.70
2022-07-31T11:43:51.142Z,14.02
2022-07-31T11:45:55.110Z,13.80
2022-07-31T11:48:12.293Z,20.92
2022-07-31T11:50:16.003Z,16.92
2022-07-31T11:52:30.298Z,13.70
2022-07-31T11:54:40.228Z,17.23
2022-07-31T11:56:42.613Z,15.53
2022-07-31T11:58:59.463Z,14.95
2022-07-31T12:01:03.128Z,15.15
2022-07-31T12:03:17.923Z,16.02
2022-07-31T12:05:20.467Z,14.80
2022-07-31T12:10:04.619Z,19.20
2022-07-31T12:12:11.914Z,14.27
2022-07-31T12:14:14.140Z,15.52
2022-07-31T12:16:19.807Z,18.15
2022-07-31T12:18:30.378Z,18.30
2022-07-31T12:20:36.995Z,21.20
2022-07-31T12:22:39.725Z,18.23
2022-07-31T12:24:43.220Z,18.20
2022-07-31T12:26:59.271Z,15.30
2022-07-31T12:29:18.285Z,15.82
2022-07-31T12:31:22.268Z,11.98
2022-07-31T12:33:24.363Z,13.38
2022-07-31T12:35:56.303Z,11.88
2022-07-31T12:38:37.867Z,14.57
2022-07-31T12:40:36.777Z,12.98
2022-07-31T12:42:41.814Z,14.80
2022-07-31T12:44:51.613Z,15.20
2022-07-31T12:46:55.607Z,12.80
2022-07-31T12:49:03.586Z,13.95
2022-07-31T12:51:05.812Z,15.45
2022-07-31T12:53:08.012Z,18.05
2022-07-31T12:55:22.031Z,13.90
2022-07-31T12:57:24.904Z,12.30
2022-07-31T12:59:31.262Z,10.85
2022-07-31T13:01:34.276Z,13.45
2022-07-31T13:03:46.334Z,16.50
2022-07-31T13:05:52.103Z,14.48
2022-07-31T13:07:54.997Z,14.02
2022-07-31T13:10:20.504Z,15.25
2022-07-31T13:12:21.886Z,17.00
2022-07-31T13:14:24.208Z,17.80
2022-07-31T13:16:29.630Z,18.05
2022-07-31T13:18:32.754Z,18.73
2022-07-31T13:20:39.883Z,14.95
2022-07-31T13:22:42.284Z,16.13
2022-07-31T13:24:48.334Z,17.23
2022-07-31T13:26:51.725Z,13.48
2022-07-31T13:28:53.900Z,17.25
2022-07-31T13:30:58.817Z,14.95
2022-07-31T13:33:01.166Z,15.95
2022-07-31T13:35:19.634Z,16.83
2022-07-31T13:37:32.048Z,16.98
2022-07-31T13:39:37.161Z,20.40
2022-07-31T13:41:41.890Z,15.57
2022-07-31T13:46:51.646Z,13.05
2022-07-31T13:52:28.764Z,10.83
2022-07-31T13:54:41.582Z,10.98
2022-07-31T13:56:56.134Z,9.27
2022-07-31T13:58:59.285Z,10.60
2022-07-31T14:01:04.502Z,10.13
2022-07-31T14:03:18.372Z,10.65
2022-07-31T14:05:23.687Z,10.20
2022-07-31T14:07:48.017Z,8.30
2022-07-31T14:09:55.356Z,9.13
2022-07-31T14:11:57.675Z,8.80
2022-07-31T14:14:00.616Z,6.93
2022-07-31T14:16:02.798Z,10.73
2022-07-31T14:18:08.126Z,8.63
2022-07-31T14:20:12.145Z,9.40
2022-07-31T14:22:14.503Z,7.13
2022-07-31T14:24:16.647Z,7.47
2022-07-31T14:26:18.812Z,8.30
2022-07-31T14:28:21.699Z,7.60
2022-07-31T14:30:24.983Z,8.52
2022-07-31T14:32:30.718Z,8.02
2022-07-31T14:34:35.334Z,6.07
2022-07-31T14:36:38.370Z,6.32
2022-07-31T14:38:40.426Z,7.07
2022-07-31T14:40:44.699Z,4.30
2022-07-31T14:42:46.768Z,5.57
2022-07-31T14:44:48.831Z,5.10
2022-07-31T14:46:51.002Z,3.72
2022-07-31T14:48:55.054Z,3.80
2022-07-31T14:50:57.774Z,3.30
2022-07-31T14:53:01.100Z,3.47
2022-07-31T14:55:03.148Z,5.45
2022-07-31T14:57:05.937Z,4.85
2022-07-31T14:59:07.972Z,3.92
2022-07-31T15:01:10.188Z,5.25
2022-07-31T15:03:12.421Z,4.55
2022-07-31T15:06:39.472Z,6.60
2022-07-31T15:07:46.818Z,5.35
2022-07-31T15:09:53.032Z,4.80
2022-07-31T15:12:01.268Z,7.00
2022-07-31T15:14:04.006Z,5.72
2022-07-31T15:16:06.467Z,6.05
2022-07-31T15:18:08.805Z,4.65
2022-07-31T15:20:13.475Z,6.45
2022-07-31T15:22:19.360Z,5.55
2022-07-31T15:24:21.555Z,6.30
2022-07-31T15:26:25.054Z,6.70
2022-07-31T15:28:29.370Z,5.85
2022-07-31T15:30:39.927Z,6.63
2022-07-31T15:32:42.078Z,8.13
2022-07-31T15:34:45.164Z,7.63
2022-07-31T15:36:50.646Z,7.32
2022-07-31T15:38:55.417Z,6.90
2022-07-31T15:46:09.901Z,6.25
2022-07-31T15:48:12.753Z,7.13
2022-07-31T15:55:30.064Z,6.38
2022-07-31T15:57:37.655Z,9.55
2022-07-31T15:59:40.477Z,5.63
2022-07-31T16:01:55.735Z,7.25
2022-07-31T16:04:16.312Z,6.22
2022-07-31T16:06:19.370Z,6.70
2022-07-31T16:11:07.240Z,5.50
2022-07-31T16:13:09.795Z,6.05
2022-07-31T16:15:12.666Z,8.20
2022-07-31T16:17:21.697Z,7.40
2022-07-31T16:19:25.221Z,6.05
2022-07-31T16:21:29.948Z,6.80
2022-07-31T16:23:35.883Z,9.35
2022-07-31T16:25:37.952Z,5.15
2022-07-31T16:27:40.549Z,7.70
2022-07-31T16:29:59.982Z,5.55
2022-07-31T16:32:04.471Z,6.53
2022-07-31T16:34:09.475Z,6.57
2022-07-31T16:36:11.569Z,7.65
2022-07-31T16:38:13.826Z,7.47
2022-07-31T16:40:28.274Z,7.72
2022-07-31T16:42:32.494Z,5.35
2022-07-31T16:44:37.309Z,8.20
2022-07-31T16:46:43.978Z,7.32
2022-07-31T16:48:46.253Z,5.90
2022-07-31T16:50:54.055Z,8.85
2022-07-31T16:52:57.039Z,8.30
2022-07-31T16:55:03.542Z,8.18
2022-07-31T16:57:08.292Z,4.93
2022-07-31T16:59:10.939Z,4.80
2022-07-31T17:01:56.717Z,4.90
2022-07-31T17:04:00.965Z,5.65
2022-07-31T17:06:00.960Z,4.78
2022-07-31T17:08:07.886Z,6.63
2022-07-31T17:10:10.298Z,4.75
2022-07-31T17:12:12.402Z,4.20
2022-07-31T17:14:15.311Z,5.68
2022-07-31T17:16:17.363Z,5.53
2022-07-31T17:18:24.979Z,8.43
2022-07-31T17:20:30.287Z,5.00
2022-07-31T17:22:34.338Z,4.53
2022-07-31T17:26:42.026Z,7.65
2022-07-31T17:28:44.163Z,5.47
2022-07-31T17:30:46.309Z,6.28
2022-07-31T17:32:48.501Z,5.60
2022-07-31T17:34:50.558Z,5.90
2022-07-31T17:36:52.550Z,4.80
2022-07-31T17:38:54.666Z,6.25
2022-07-31T17:40:56.726Z,4.97
2022-07-31T17:42:59.636Z,4.72
2022-07-31T17:45:02.695Z,5.65
2022-07-31T17:47:09.175Z,8.10
2022-07-31T17:49:13.848Z,5.78
2022-07-31T17:51:23.750Z,5.05
2022-07-31T17:53:31.166Z,5.53
2022-07-31T17:55:49.662Z,4.10
2022-07-31T17:57:57.777Z,4.95
2022-07-31T18:00:04.238Z,4.82
2022-07-31T18:02:08.568Z,3.90
2022-07-31T18:04:10.907Z,4.05
2022-07-31T18:06:23.339Z,4.68
2022-07-31T18:08:29.475Z,5.93
2022-07-31T18:10:52.212Z,3.92
2022-07-31T18:12:57.594Z,4.25
2022-07-31T18:15:00.243Z,5.95
2022-07-31T18:17:02.581Z,5.28
2022-07-31T18:19:04.623Z,4.95
2022-07-31T18:21:06.677Z,3.83
2022-07-31T18:23:10.049Z,7.30
2022-07-31T18:25:12.400Z,4.97
2022-07-31T18:27:14.667Z,4.60
2022-07-31T18:29:17.477Z,3.97
2022-07-31T18:31:32.713Z,4.97
2022-07-31T18:33:42.558Z,3.92
2022-07-31T18:35:45.522Z,4.35
2022-07-31T18:37:47.673Z,6.35
2022-07-31T18:39:50.547Z,6.30
2022-07-31T18:41:53.131Z,4.13
2022-07-31T18:43:56.097Z,6.43
2022-07-31T18:45:58.287Z,3.65
2022-07-31T18:48:01.091Z,4.15
2022-07-31T18:50:59.545Z,3.85
2022-07-31T18:52:30.809Z,3.67
2022-07-31T18:54:32.949Z,4.22
2022-07-31T18:56:35.041Z,4.63
2022-07-31T18:58:37.047Z,2.83
2022-07-31T19:00:39.554Z,5.80
2022-07-31T19:02:41.684Z,2.50
2022-07-31T19:04:43.843Z,2.97
2022-07-31T19:06:45.883Z,3.17
2022-07-31T19:08:52.220Z,3.65
2022-07-31T19:10:54.405Z,3.50
2022-07-31T19:12:56.682Z,3.25
2022-07-31T19:14:59.074Z,2.60
2022-07-31T19:17:02.046Z,2.92
2022-07-31T19:19:04.338Z,5.40
2022-07-31T19:21:22.836Z,4.45
2022-07-31T19:23:30.302Z,4.55
2022-07-31T19:25:52.161Z,6.90
2022-07-31T19:27:57.845Z,3.63
2022-07-31T19:30:00.114Z,3.88
2022-07-31T19:32:04.573Z,4.00
2022-07-31T19:34:06.983Z,4.45
2022-07-31T19:36:10.905Z,7.68
2022-07-31T19:38:13.146Z,4.82
2022-07-31T19:40:15.236Z,6.03
2022-07-31T19:42:20.383Z,6.88
2022-07-31T19:44:23.237Z,5.70
2022-07-31T19:46:25.272Z,5.13
2022-07-31T19:48:27.362Z,5.93
2022-07-31T19:50:30.783Z,6.13
2022-07-31T19:52:35.664Z,6.53
2022-07-31T19:54:38.863Z,8.77
2022-07-31T19:56:41.053Z,6.47
2022-07-31T19:58:43.075Z,7.35
2022-07-31T20:00:45.144Z,9.55
2022-07-31T20:02:47.473Z,9.15
2022-07-31T20:05:00.172Z,6.47
2022-07-31T20:07:02.477Z,8.32
2022-07-31T20:09:05.590Z,9.35
2022-07-31T20:11:07.832Z,7.43
2022-07-31T20:13:16.545Z,11.05
2022-07-31T20:15:20.781Z,7.38
2022-07-31T20:17:27.779Z,5.63
2022-07-31T20:19:30.889Z,6.60
2022-07-31T20:21:35.177Z,4.03
2022-07-31T20:23:39.217Z,5.32
2022-07-31T20:25:41.338Z,3.47
2022-07-31T20:27:44.516Z,5.25
2022-07-31T20:29:47.471Z,2.43
2022-07-31T20:31:49.874Z,4.18
2022-07-31T20:33:57.441Z,3.80
2022-07-31T20:36:00.301Z,2.10
2022-07-31T20:38:02.574Z,3.03
2022-07-31T20:40:05.680Z,4.32
2022-07-31T20:42:10.067Z,2.20
2022-07-31T20:44:12.034Z,2.38
2022-07-31T20:46:16.864Z,3.22
2022-07-31T20:50:23.854Z,2.00
2022-07-31T20:52:25.811Z,2.17
2022-07-31T20:54:34.567Z,3.08
2022-07-31T20:56:37.645Z,2.45
2022-07-31T20:58:40.927Z,2.85
2022-07-31T21:00:43.756Z,5.22
2022-07-31T21:02:46.713Z,3.75
2022-07-31T21:04:51.900Z,2.92
2022-07-31T21:06:53.887Z,2.10
2022-07-31T21:08:55.830Z,1.83
2022-07-31T21:11:01.005Z,2.50
2022-07-31T21:13:03.669Z,2.15
2022-07-31T21:15:08.238Z,2.88
2022-07-31T21:17:30.295Z,5.20
2022-07-31T21:19:32.262Z,2.72
2022-07-31T21:21:34.291Z,4.97
2022-07-31T21:23:36.299Z,2.90
2022-07-31T21:25:38.832Z,5.93
2022-07-31T21:27:44.786Z,3.90
2022-07-31T21:29:51.095Z,4.45
2022-07-31T21:31:57.647Z,3.75
2022-07-31T21:33:59.970Z,4.80
2022-07-31T21:36:02.453Z,5.35
2022-07-31T21:38:05.224Z,4.68
2022-07-31T21:40:08.061Z,6.70
2022-07-31T21:42:10.504Z,5.85
2022-07-31T21:44:14.232Z,4.95
2022-07-31T21:46:22.805Z,7.90
2022-07-31T21:48:27.119Z,6.07
2022-07-31T21:50:29.816Z,10.07
2022-07-31T21:52:32.155Z,8.25
2022-07-31T21:54:34.295Z,6.82
2022-07-31T21:56:36.301Z,7.75
2022-07-31T21:58:41.300Z,8.00
2022-07-31T22:00:44.040Z,9.32
2022-07-31T22:02:47.151Z,10.23
2022-07-31T22:05:15.422Z,9.55
2022-07-31T22:07:32.553Z,8.73
2022-07-31T22:09:34.576Z,8.82
2022-07-31T22:11:36.744Z,8.32
2022-07-31T22:13:39.307Z,8.18
2022-07-31T22:15:51.349Z,9.82
2022-07-31T22:18:02.873Z,7.97
2022-07-31T22:20:07.166Z,8.77
2022-07-31T22:22:09.745Z,12.90
2022-07-31T22:24:12.100Z,10.77
2022-07-31T22:26:15.052Z,14.55
2022-07-31T22:28:19.772Z,9.48
2022-07-31T22:30:24.729Z,10.98
2022-07-31T22:32:27.128Z,11.10
2022-07-31T22:34:37.696Z,12.00
2022-07-31T22:36:40.167Z,13.70
2022-07-31T22:38:44.285Z,11.10
2022-07-31T22:42:57.482Z,14.50
2022-07-31T22:45:00.433Z,11.07
2022-07-31T22:47:03.342Z,8.88
2022-07-31T22:49:07.425Z,11.30
2022-07-31T22:51:14.922Z,13.63
2022-07-31T22:53:17.723Z,9.90
2022-07-31T22:55:19.918Z,11.20
2022-07-31T22:57:22.734Z,9.45
2022-07-31T22:59:24.943Z,11.90
2022-07-31T23:01:27.534Z,12.55
2022-07-31T23:03:29.526Z,11.80
2022-07-31T23:06:28.294Z,10.45
2022-07-31T23:07:53.728Z,10.57
2022-07-31T23:09:55.821Z,10.25
2022-07-31T23:11:58.985Z,8.00
2022-07-31T23:14:01.030Z,8.20
2022-07-31T23:16:03.096Z,10.60
2022-07-31T23:18:05.135Z,9.63
2022-07-31T23:20:07.834Z,7.80
2022-07-31T23:22:10.126Z,9.27
2022-07-31T23:24:12.250Z,7.25
2022-07-31T23:26:14.429Z,9.18
2022-07-31T23:28:16.377Z,9.48
2022-07-31T23:30:20.682Z,10.50
2022-07-31T23:32:22.687Z,7.28
2022-07-31T23:34:24.659Z,9.02
2022-07-31T23:36:26.670Z,9.63
2022-07-31T23:38:28.690Z,8.98
2022-07-31T23:40:30.893Z,12.60
2022-07-31T23:42:38.907Z,7.70
2022-07-31T23:44:41.077Z,7.20
2022-07-31T23:46:49.451Z,8.35
2022-07-31T23:48:52.379Z,8.80
2022-07-31T23:50:54.384Z,8.88
2022-07-31T23:52:56.465Z,8.32
2022-07-31T23:54:58.519Z,6.45
2022-07-31T23:57:00.585Z,6.82
2022-07-31T23:59:02.552Z,7.38
